createdAt,value
2023-01-13T00:00:01.253Z,290.30400000000003
2023-01-13T00:05:01.218Z,2011.695
2023-01-13T00:10:01.208Z,2398.3
2023-01-13T00:15:01.265Z,2421.007
2023-01-13T00:20:01.331Z,927.8340000000001
2023-01-13T00:25:01.315Z,197.191
2023-01-13T00:30:01.336Z,197.439
2023-01-13T00:35:01.432Z,243.315
2023-01-13T00:40:01.442Z,326.984
2023-01-13T00:45:01.401Z,304.552
2023-01-13T00:50:01.396Z,257.25100000000003
2023-01-13T00:55:01.422Z,173.626
2023-01-13T01:00:01.285Z,1115.521
2023-01-13T01:05:01.345Z,2423.531
2023-01-13T01:10:01.302Z,2439.827
2023-01-13T01:15:01.309Z,2642.154
2023-01-13T01:20:01.292Z,1627.2160000000001
2023-01-13T01:25:01.271Z,308.202
2023-01-13T01:30:01.317Z,286.419
2023-01-13T01:35:01.356Z,282.507
2023-01-13T01:40:01.300Z,184.543
2023-01-13T01:45:01.350Z,175.149
2023-01-13T01:50:01.310Z,174.352
2023-01-13T01:55:01.316Z,178.981
2023-01-13T02:00:01.344Z,181.08700000000002
2023-01-13T02:05:01.326Z,181.03300000000002
2023-01-13T02:10:01.315Z,1274.836
2023-01-13T02:15:01.346Z,2488.716
2023-01-13T02:20:01.406Z,2562.087
2023-01-13T02:25:01.350Z,1311.9950000000001
2023-01-13T02:30:01.349Z,214.904
2023-01-13T02:35:01.600Z,205.802
2023-01-13T02:40:01.431Z,202.592
2023-01-13T02:45:01.502Z,200.735
2023-01-13T02:50:01.601Z,198.729
2023-01-13T02:55:01.496Z,286.89
2023-01-13T03:00:01.546Z,290.195
2023-01-13T03:05:01.533Z,285.755
2023-01-13T03:10:01.372Z,1244.128
2023-01-13T03:15:01.380Z,2258.971
2023-01-13T03:20:01.422Z,2399.125
2023-01-13T03:25:01.339Z,2413.587
2023-01-13T03:30:01.358Z,2726.588
2023-01-13T03:35:01.384Z,1419.646
2023-01-13T03:40:01.397Z,252.39600000000002
2023-01-13T03:45:01.403Z,315.342
2023-01-13T03:50:01.527Z,308.005
2023-01-13T03:55:01.463Z,265.25
2023-01-13T04:00:01.445Z,197.356
2023-01-13T04:05:01.424Z,204.306
2023-01-13T04:10:02.050Z,206.875
2023-01-13T04:15:01.425Z,194.911
2023-01-13T04:20:01.467Z,173.582
2023-01-13T04:25:01.453Z,1722.867
2023-01-13T04:30:01.429Z,2484.2400000000002
2023-01-13T04:35:01.466Z,2516.665
2023-01-13T04:40:01.437Z,2143.317
2023-01-13T04:45:01.479Z,197.306
2023-01-13T04:50:01.475Z,196.351
2023-01-13T04:55:01.479Z,189.94400000000002
2023-01-13T05:00:01.808Z,172.454
2023-01-13T05:05:01.645Z,187.192
2023-01-13T05:10:01.579Z,170.631
2023-01-13T05:15:01.732Z,291.991
2023-01-13T05:20:01.634Z,285.36
2023-01-13T05:25:01.612Z,2267.535
2023-01-13T05:30:01.628Z,2349.487
2023-01-13T05:35:01.619Z,2360.9210000000003
2023-01-13T05:40:01.699Z,2076.456
2023-01-13T05:45:01.541Z,2586.033
2023-01-13T05:50:01.537Z,2460.058
2023-01-13T05:55:01.542Z,301.385
2023-01-13T06:00:01.531Z,409.748
2023-01-13T06:05:01.526Z,486.435
2023-01-13T06:10:01.544Z,572.316
2023-01-13T06:15:01.596Z,1063.185
2023-01-13T06:20:01.544Z,702.327
2023-01-13T06:25:01.585Z,388.511
2023-01-13T06:30:01.542Z,1655.505
2023-01-13T06:35:02.411Z,2533.466
2023-01-13T06:40:01.590Z,2556.083
2023-01-13T06:45:01.585Z,2649.469
2023-01-13T06:50:01.573Z,2671.511
2023-01-13T06:55:01.586Z,2804.733
2023-01-13T07:00:01.570Z,2374.927
2023-01-13T07:05:01.571Z,256.866
2023-01-13T07:10:01.595Z,949.552
2023-01-13T07:15:01.639Z,379.225
2023-01-13T07:20:01.648Z,376.357
2023-01-13T07:25:01.618Z,374.438
2023-01-13T07:30:01.685Z,433.724
2023-01-13T07:35:01.775Z,2151.669
2023-01-13T07:40:01.735Z,2657.348
2023-01-13T07:45:01.835Z,2304.296
2023-01-13T07:50:01.768Z,2569.049
2023-01-13T07:55:01.631Z,2605.482
2023-01-13T08:00:01.643Z,2949.525
2023-01-13T08:05:01.611Z,1300.351
2023-01-13T08:10:01.642Z,362.306
2023-01-13T08:15:01.697Z,380.545
2023-01-13T08:20:01.653Z,448.884
2023-01-13T08:25:01.615Z,439.541
2023-01-13T08:30:01.644Z,430.63
2023-01-13T08:35:01.632Z,323.623
2023-01-13T08:40:01.657Z,319.245
2023-01-13T08:45:01.691Z,401.319
2023-01-13T08:50:01.658Z,2931.283
2023-01-13T08:55:01.712Z,2429.862
2023-01-13T09:00:01.717Z,2801.425
2023-01-13T09:05:01.647Z,1490.064
2023-01-13T09:10:01.705Z,981.001
2023-01-13T09:15:01.712Z,439.719
2023-01-13T09:20:01.693Z,349.576
2023-01-13T09:25:01.798Z,323.91700000000003
2023-01-13T09:30:01.792Z,1719.3690000000001
2023-01-13T09:35:01.941Z,2575.701
2023-01-13T09:40:01.800Z,2795.792
2023-01-13T09:45:01.909Z,269.45300000000003
2023-01-13T09:50:01.864Z,338.463
2023-01-13T09:55:01.880Z,370.589
2023-01-13T10:00:01.742Z,366.516
2023-01-13T10:05:01.750Z,307.819
2023-01-13T10:10:01.727Z,253.353
2023-01-13T10:15:01.740Z,252.06
2023-01-13T10:20:01.745Z,220.091
2023-01-13T10:25:01.729Z,1870.205
2023-01-13T10:30:01.983Z,2406.606
2023-01-13T10:35:01.733Z,2470.169
2023-01-13T10:40:01.784Z,2558.2400000000002
2023-01-13T10:45:01.798Z,517.968
2023-01-13T10:50:01.785Z,292.38800000000003
2023-01-13T10:55:01.813Z,202.775
2023-01-13T11:00:01.769Z,201.696
2023-01-13T11:05:01.824Z,200.168
2023-01-13T11:10:01.824Z,200.145
2023-01-13T11:15:01.797Z,178.992
2023-01-13T11:20:01.873Z,194.203
2023-01-13T11:25:01.923Z,301.60200000000003
2023-01-13T11:30:01.960Z,430.67400000000004
2023-01-13T11:35:01.968Z,2447.507
2023-01-13T11:40:01.987Z,2373.117
2023-01-13T11:45:01.826Z,2393.503
2023-01-13T11:50:01.829Z,2812.54
2023-01-13T11:55:01.809Z,919.952
2023-01-13T12:00:01.782Z,210.053
2023-01-13T12:05:01.886Z,213.829
2023-01-13T12:10:03.421Z,314.076
2023-01-13T12:15:01.872Z,316.479
2023-01-13T12:20:01.932Z,309.161
2023-01-13T12:25:01.853Z,225.916
2023-01-13T12:30:01.919Z,200.893
2023-01-13T12:35:01.842Z,200.91400000000002
2023-01-13T12:40:01.857Z,192.96200000000002
2023-01-13T12:45:01.914Z,781.59
2023-01-13T12:50:01.868Z,2329.843
2023-01-13T12:55:01.834Z,2420.831
2023-01-13T13:00:01.846Z,2228.482
2023-01-13T13:05:01.888Z,2144.03
2023-01-13T13:15:03.514Z,198.48000000000002
2023-01-13T13:20:02.123Z,230.629
2023-01-13T13:25:02.018Z,254.961
2023-01-13T13:30:02.062Z,264.517
2023-01-13T13:35:01.931Z,271.935
2023-01-13T13:40:01.890Z,318.226
2023-01-13T13:45:04.723Z,392.858
2023-01-13T13:50:01.878Z,2331.6150000000002
2023-01-13T13:55:01.972Z,2507.127
2023-01-13T14:00:01.919Z,2450.511
2023-01-13T14:05:02.012Z,2594.397
2023-01-13T14:10:01.883Z,2480.491
2023-01-13T14:15:01.963Z,242.03
2023-01-13T14:20:01.935Z,242.15
2023-01-13T14:25:02.007Z,257.774
2023-01-13T14:30:01.902Z,361.236
2023-01-13T14:35:01.943Z,357.52
2023-01-13T14:40:01.932Z,354.33
2023-01-13T14:45:01.982Z,266.621
2023-01-13T14:50:02.009Z,261.54200000000003
2023-01-13T14:55:02.021Z,984.6
2023-01-13T15:00:02.079Z,2440.555
2023-01-13T15:05:01.906Z,2442.247
2023-01-13T15:10:01.912Z,2486.334
2023-01-13T15:15:01.999Z,1288.5
2023-01-13T15:20:01.932Z,429.449
2023-01-13T15:25:01.896Z,425.88100000000003
2023-01-13T15:30:01.920Z,325.257
2023-01-13T15:35:01.944Z,281.632
2023-01-13T15:40:01.896Z,293.276
2023-01-13T15:45:01.985Z,309.875
2023-01-13T15:50:01.934Z,305.265
2023-01-13T15:55:01.903Z,649.607
2023-01-13T16:00:02.010Z,2421.619
2023-01-13T16:05:01.978Z,2705.915
2023-01-13T16:10:01.966Z,2703.4610000000002
2023-01-13T16:15:02.065Z,2824.381
2023-01-13T16:20:02.062Z,3048.504
2023-01-13T16:25:02.149Z,2422.417
2023-01-13T16:30:02.323Z,395.749
2023-01-13T16:35:02.179Z,392.103
2023-01-13T16:40:02.263Z,2837.7980000000002
2023-01-13T16:45:02.174Z,3116.2490000000003
2023-01-13T16:50:02.077Z,3391.58
2023-01-13T16:55:02.162Z,1745.957
2023-01-13T17:00:02.098Z,2814.782
2023-01-13T17:05:02.104Z,3324.014
2023-01-13T17:10:02.137Z,2048.708
2023-01-13T17:15:02.251Z,3676.0080000000003
2023-01-13T17:20:02.142Z,3705.252
2023-01-13T17:25:02.131Z,3341.433
2023-01-13T17:30:02.178Z,3179.111
2023-01-13T17:35:02.178Z,2722.136
2023-01-13T17:40:02.190Z,2744.351
2023-01-13T17:45:02.158Z,2907.042
2023-01-13T17:50:02.126Z,3140.283
2023-01-13T17:55:02.152Z,392.871
2023-01-13T18:00:02.315Z,390.707
2023-01-13T18:05:03.970Z,356.54900000000004
2023-01-13T18:10:02.310Z,335.999
2023-01-13T18:15:02.416Z,356.243
2023-01-13T18:20:02.398Z,487.39
2023-01-13T18:25:02.156Z,542.898
2023-01-13T18:30:02.267Z,516.096
2023-01-13T18:35:05.914Z,441.842
2023-01-13T18:40:02.357Z,398.972
2023-01-13T18:45:02.160Z,875.8430000000001
2023-01-13T18:50:02.160Z,1299.537
2023-01-13T18:55:02.208Z,420.867
2023-01-13T19:00:02.310Z,338.561
2023-01-13T19:05:02.181Z,1008.025
2023-01-13T19:10:02.240Z,2533.506
2023-01-13T19:15:02.233Z,2515.387
2023-01-13T19:20:02.250Z,2511.781
2023-01-13T19:25:02.421Z,2474.456
2023-01-13T19:30:02.958Z,2108.638
2023-01-13T19:35:02.379Z,2597.43
2023-01-13T19:40:02.398Z,2919.1620000000003
2023-01-13T19:45:02.408Z,1028.914
2023-01-13T19:50:02.225Z,291.198
2023-01-13T19:55:02.262Z,399.641
2023-01-13T20:00:02.325Z,394.359
2023-01-13T20:05:02.244Z,382.409
2023-01-13T20:10:02.277Z,296.883
2023-01-13T20:15:02.362Z,381.015
2023-01-13T20:20:02.321Z,375.63800000000003
2023-01-13T20:25:02.287Z,1570.038
2023-01-13T20:30:02.288Z,3638.009
2023-01-13T20:35:02.345Z,3255.002
2023-01-13T20:40:02.301Z,3061.6440000000002
2023-01-13T20:45:02.349Z,2520.9410000000003
2023-01-13T20:50:02.327Z,2504.805
2023-01-13T20:55:02.325Z,2473.411
2023-01-13T21:00:02.305Z,2646.634
2023-01-13T21:05:02.296Z,2519.377
2023-01-13T21:10:02.333Z,224.535
2023-01-13T21:15:02.627Z,375.961
2023-01-13T21:20:04.387Z,362.44
2023-01-13T21:25:02.445Z,298.981
2023-01-13T21:30:02.483Z,372.065
2023-01-13T21:35:02.584Z,367.224
2023-01-13T21:40:02.355Z,339.89
2023-01-13T21:45:02.394Z,252.57
2023-01-13T21:50:02.335Z,248.46200000000002
2023-01-13T21:55:02.370Z,867.503
2023-01-13T22:00:02.325Z,2258.476
2023-01-13T22:05:02.332Z,2404.817
2023-01-13T22:10:02.475Z,2418.501
2023-01-13T22:15:02.382Z,2571.051
2023-01-13T22:20:02.378Z,2942.17
2023-01-13T22:25:02.424Z,2912.356
2023-01-13T22:30:02.352Z,2429.161
2023-01-13T22:35:02.390Z,2369.844
2023-01-13T22:40:02.359Z,604.666
2023-01-13T22:45:02.403Z,187.672
2023-01-13T22:50:02.480Z,201.298
2023-01-13T22:55:02.552Z,200.442
2023-01-13T23:00:02.567Z,282.686
2023-01-13T23:05:02.572Z,316.248
2023-01-13T23:10:02.587Z,2307.848
2023-01-13T23:15:02.623Z,2425.93
2023-01-13T23:20:02.419Z,2410.805
2023-01-13T23:25:02.367Z,2468.058
2023-01-13T23:30:02.442Z,2890.216
2023-01-13T23:35:02.423Z,179.827
2023-01-13T23:40:02.507Z,198.056
2023-01-13T23:45:02.503Z,246.35500000000002
2023-01-13T23:50:02.429Z,314.617
2023-01-13T23:55:02.420Z,306.551
